Time;durP1;ratioP1;P1;durP2;ratioP2;P2;SDS_P1;SDS_P2;PMS_P1;PMS_P2;Temp;Humidity;BMP_temperature;BMP_pressure;BME280_temperature;BME280_humidity;BME280_pressure;Samples;Min_cycle;Max_cycle;Signal;HPM_P1;HPM_P2
2021/04/11 00:01:45;;;;;;;135.50;111.15;;;26.50;94.10;;;;;;4963340;28;20027;-51
2021/04/11 00:04:12;;;;;;;96.38;77.15;;;26.50;94.10;;;;;;4963125;28;20034;-50
2021/04/11 00:06:38;;;;;;;87.57;72.45;;;26.50;94.00;;;;;;4961713;28;20096;-41
2021/04/11 00:09:07;;;;;;;63.80;52.78;;;26.50;94.00;;;;;;4961957;28;20027;-40
2021/04/11 00:11:34;;;;;;;68.22;54.30;;;26.50;94.00;;;;;;4962100;28;20231;-43
2021/04/11 00:14:00;;;;;;;55.25;44.28;;;26.50;94.10;;;;;;4962890;28;20030;-43
2021/04/11 00:16:27;;;;;;;52.05;40.72;;;26.40;94.00;;;;;;4961987;29;20069;-49
2021/04/11 00:18:54;;;;;;;46.88;38.60;;;26.40;94.10;;;;;;4962125;29;20031;-47
2021/04/11 00:21:21;;;;;;;41.58;31.88;;;26.40;94.10;;;;;;4961786;29;20015;-45
2021/04/11 00:23:48;;;;;;;33.13;26.45;;;26.40;94.10;;;;;;4963801;28;20055;-54
2021/04/11 00:26:14;;;;;;;37.90;30.33;;;26.40;94.10;;;;;;4963146;28;20031;-52
2021/04/11 00:28:41;;;;;;;35.83;24.55;;;26.40;94.10;;;;;;4962804;28;20090;-50
2021/04/11 00:31:08;;;;;;;29.98;21.40;;;26.40;94.10;;;;;;4961747;28;20311;-42
2021/04/11 00:33:38;;;;;;;26.13;18.42;;;26.40;94.20;;;;;;4963021;28;20027;-43
2021/04/11 00:36:08;;;;;;;21.80;17.63;;;26.30;94.10;;;;;;4962758;28;20019;-45
2021/04/11 00:38:35;;;;;;;18.88;14.50;;;26.30;94.10;;;;;;4962824;28;20031;-46
2021/04/11 00:41:07;;;;;;;16.85;11.63;;;26.30;94.10;;;;;;4961994;28;20238;-46
2021/04/11 00:43:36;;;;;;;14.02;10.25;;;26.30;94.10;;;;;;4962547;28;20222;-51
2021/04/11 00:46:29;;;;;;;16.13;9.77;;;26.30;94.10;;;;;;4962732;28;20050;-44
2021/04/11 00:48:56;;;;;;;14.38;9.35;;;26.30;94.10;;;;;;4962510;28;20031;-48
2021/04/11 00:51:28;;;;;;;13.70;7.53;;;26.30;94.30;;;;;;4961498;28;20054;-47
2021/04/11 00:53:59;;;;;;;;;;;26.20;94.10;;;;;;4962887;28;20048;-45
2021/04/11 00:56:26;;;;;;;10.48;6.50;;;26.20;94.00;;;;;;4961410;28;20218;-50
2021/04/11 00:58:56;;;;;;;13.82;5.82;;;26.20;94.10;;;;;;4961840;28;20308;-46
2021/04/11 01:01:27;;;;;;;11.35;6.18;;;26.20;94.10;;;;;;4962339;28;20046;-47
2021/04/11 01:03:55;;;;;;;12.13;4.68;;;26.20;94.10;;;;;;4962685;28;20270;-47
2021/04/11 01:06:31;;;;;;;12.50;3.60;;;26.20;94.10;;;;;;4962872;28;20357;-56
2021/04/11 01:09:00;;;;;;;6.18;3.40;;;26.10;94.20;;;;;;4961980;28;20027;-45
2021/04/11 01:11:32;;;;;;;9.57;3.55;;;26.00;94.20;;;;;;4963120;28;20015;-45
2021/04/11 01:14:05;;;;;;;5.90;3.90;;;26.00;94.40;;;;;;4962485;28;20020;-44
2021/04/11 01:16:33;;;;;;;9.15;4.78;;;26.00;94.40;;;;;;4961537;29;20023;-43
2021/04/11 01:19:00;;;;;;;10.77;4.10;;;25.90;94.60;;;;;;4962435;28;20042;-42
2021/04/11 01:21:42;;;;;;;9.48;3.70;;;25.80;94.70;;;;;;4964448;28;20023;-47
2021/04/11 01:24:20;;;;;;;7.57;3.35;;;25.80;94.80;;;;;;4978560;28;20030;-46
2021/04/11 01:26:52;;;;;;;12.52;3.25;;;25.90;94.80;;;;;;4981607;28;20176;-45
2021/04/11 01:29:20;;;;;;;11.70;2.58;;;25.90;94.50;;;;;;4978906;28;20019;-47
2021/04/11 01:31:47;;;;;;;9.15;2.55;;;26.00;94.60;;;;;;4981520;28;20035;-44
2021/04/11 01:34:14;;;;;;;11.27;2.83;;;26.00;94.30;;;;;;4984583;28;20042;-50
2021/04/11 01:36:44;;;;;;;9.00;4.63;;;26.00;94.20;;;;;;4984488;28;20060;-44
2021/04/11 01:39:21;;;;;;;9.38;3.20;;;26.00;94.20;;;;;;4983542;28;20019;-46
2021/04/11 01:41:51;;;;;;;6.10;2.92;;;26.00;94.10;;;;;;4984015;28;20050;-44
2021/04/11 01:44:24;;;;;;;7.47;2.58;;;26.00;94.10;;;;;;4983723;28;20317;-43
2021/04/11 01:46:52;;;;;;;11.50;3.17;;;26.00;94.20;;;;;;4984773;28;20042;-47
2021/04/11 01:49:21;;;;;;;13.50;3.10;;;26.00;94.10;;;;;;4983847;28;20273;-43
2021/04/11 01:52:06;;;;;;;9.48;2.55;;;26.00;94.10;;;;;;4981831;28;20038;-46
2021/04/11 01:54:35;;;;;;;9.02;2.50;;;26.00;94.10;;;;;;4984661;28;20230;-47
2021/04/11 01:57:32;;;;;;;6.55;2.20;;;26.00;94.10;;;;;;4984661;28;20027;-47
2021/04/11 02:00:21;;;;;;;8.52;2.10;;;25.90;94.10;;;;;;5007929;28;20132;-49
2021/04/11 02:02:51;;;;;;;8.82;2.47;;;25.90;94.10;;;;;;4984810;28;20029;-47
2021/04/11 02:05:19;;;;;;;9.32;2.83;;;25.90;94.80;;;;;;4984522;28;20223;-46
2021/04/11 02:07:46;;;;;;;5.95;2.58;;;25.90;94.30;;;;;;4984515;28;20029;-49
2021/04/11 02:10:19;;;;;;;9.00;2.25;;;25.90;94.40;;;;;;4984330;28;20022;-49
2021/04/11 02:12:45;;;;;;;;;;;25.90;94.40;;;;;;4984230;28;20034;-45
2021/04/11 02:15:36;;;;;;;8.65;3.95;;;26.00;94.20;;;;;;4984174;28;19906;-51
2021/04/11 02:18:03;;;;;;;10.02;4.13;;;26.00;94.50;;;;;;4984125;28;20328;-43
2021/04/11 02:20:31;;;;;;;15.23;5.60;;;26.00;94.20;;;;;;4984172;28;20031;-47
2021/04/11 02:22:58;;;;;;;9.43;4.57;;;26.00;94.10;;;;;;4984498;28;20050;-56
2021/04/11 02:25:30;;;;;;;10.63;5.50;;;26.00;94.10;;;;;;4983034;28;20337;-41
2021/04/11 02:27:59;;;;;;;10.32;5.93;;;26.00;94.10;;;;;;4984471;28;20037;-46
2021/04/11 02:30:26;;;;;;;9.25;5.00;;;26.00;94.10;;;;;;4983908;28;20030;-54
2021/04/11 02:32:55;;;;;;;13.70;4.57;;;26.00;94.00;;;;;;4983827;28;20027;-43
2021/04/11 02:35:25;;;;;;;7.93;3.60;;;26.00;93.90;;;;;;4984030;28;20046;-52
2021/04/11 02:38:00;;;;;;;12.18;3.55;;;26.00;93.90;;;;;;4984250;28;20262;-45
2021/04/11 02:40:36;;;;;;;9.82;3.38;;;26.00;93.90;;;;;;4983532;28;20026;-48
2021/04/11 02:43:04;;;;;;;7.22;3.30;;;26.00;93.90;;;;;;4984167;28;20306;-50
2021/04/11 02:45:41;;;;;;;9.98;3.40;;;26.10;93.70;;;;;;4983916;28;20038;-51
2021/04/11 02:48:11;;;;;;;10.75;3.03;;;26.00;93.60;;;;;;4984179;28;20084;-51
2021/04/11 02:50:41;;;;;;;7.65;3.17;;;26.10;93.70;;;;;;4983830;28;20141;-48
2021/04/11 02:53:20;;;;;;;8.32;2.80;;;26.10;93.70;;;;;;4983527;28;20335;-48
2021/04/11 02:55:47;;;;;;;6.72;3.08;;;26.10;93.60;;;;;;4982340;28;20231;-49
2021/04/11 02:58:19;;;;;;;10.38;3.10;;;26.10;93.60;;;;;;4980662;28;20089;-45
2021/04/11 03:00:56;;;;;;;7.37;2.73;;;26.10;93.60;;;;;;4967832;28;20024;-48
2021/04/11 03:03:23;;;;;;;7.28;2.78;;;26.10;93.70;;;;;;4964045;28;20331;-42
2021/04/11 03:05:49;;;;;;;8.77;2.60;;;26.00;93.60;;;;;;4964340;28;20049;-46
2021/04/11 03:08:21;;;;;;;7.45;3.30;;;26.00;93.70;;;;;;4963609;28;20066;-42
2021/04/11 03:11:06;;;;;;;8.73;3.03;;;26.00;93.80;;;;;;4963867;28;20023;-45
2021/04/11 03:13:35;;;;;;;5.80;2.58;;;26.00;93.90;;;;;;4964128;28;20220;-48
2021/04/11 03:16:02;;;;;;;15.77;7.30;;;26.00;93.90;;;;;;4970568;28;20019;-48
2021/04/11 03:18:29;;;;;;;14.93;9.15;;;26.00;93.80;;;;;;4973630;28;20303;-49
2021/04/11 03:20:58;;;;;;;19.90;8.57;;;26.00;93.80;;;;;;4974437;28;20090;-49
2021/04/11 03:23:25;;;;;;;17.52;8.30;;;26.00;93.80;;;;;;4980434;28;20360;-48
2021/04/11 03:26:05;;;;;;;17.23;7.55;;;26.00;93.80;;;;;;4982942;28;20023;-47
2021/04/11 03:28:51;;;;;;;15.40;7.10;;;26.00;93.80;;;;;;4979126;28;20126;-53
2021/04/11 03:31:38;;;;;;;15.80;6.90;;;26.00;93.80;;;;;;4971959;28;20368;-48
2021/04/11 03:34:06;;;;;;;16.60;6.00;;;26.00;93.80;;;;;;4963461;28;20026;-44
2021/04/11 03:36:35;;;;;;;13.68;5.35;;;26.00;93.70;;;;;;4962599;28;20015;-48
2021/04/11 03:39:06;;;;;;;13.32;4.55;;;26.00;93.70;;;;;;4966356;28;20019;-46
2021/04/11 03:41:34;;;;;;;9.90;4.68;;;26.00;93.70;;;;;;4963385;28;20315;-47
2021/04/11 03:44:07;;;;;;;11.20;4.50;;;26.00;93.80;;;;;;4963468;28;20019;-49
2021/04/11 03:46:48;;;;;;;11.98;3.90;;;25.90;93.70;;;;;;4963567;28;20019;-47
2021/04/11 03:49:33;;;;;;;8.43;3.25;;;25.90;93.70;;;;;;4970136;28;20072;-45
2021/04/11 03:52:04;;;;;;;9.95;3.20;;;25.90;93.70;;;;;;4970587;28;20045;-55
2021/04/11 03:54:38;;;;;;;16.35;4.55;;;25.80;93.60;;;;;;4970972;28;20125;-46
2021/04/11 03:57:25;;;;;;;11.35;4.57;;;25.80;93.60;;;;;;4973515;28;20215;-47
2021/04/11 04:00:07;;;;;;;11.27;3.67;;;25.80;93.70;;;;;;4973008;28;20018;-44
2021/04/11 04:02:40;;;;;;;7.32;3.38;;;25.80;93.70;;;;;;4971987;28;20023;-49
2021/04/11 04:05:08;;;;;;;9.82;3.60;;;25.80;93.80;;;;;;4982614;28;20089;-49
2021/04/11 04:07:53;;;;;;;12.95;4.28;;;25.80;93.80;;;;;;4982765;28;20038;-52
2021/04/11 04:10:23;;;;;;;8.85;4.15;;;25.80;93.90;;;;;;4981424;28;20060;-47
2021/04/11 04:13:09;;;;;;;9.30;3.60;;;25.80;93.90;;;;;;4982876;28;20157;-43
2021/04/11 04:16:10;;;;;;;10.68;3.25;;;25.80;93.90;;;;;;4982482;28;20019;-48
2021/04/11 04:19:06;;;;;;;12.52;2.80;;;25.80;94.00;;;;;;4970927;28;20023;-51
2021/04/11 04:21:39;;;;;;;12.18;2.85;;;25.70;93.90;;;;;;4971567;28;20019;-43
2021/04/11 04:24:28;;;;;;;6.53;2.25;;;25.70;94.00;;;;;;4975896;28;20019;-50
2021/04/11 04:27:11;;;;;;;14.05;2.50;;;25.70;94.00;;;;;;4966385;28;20023;-48
2021/04/11 04:29:53;;;;;;;8.90;2.38;;;25.70;94.00;;;;;;4963062;28;20023;-45
2021/04/11 04:32:31;;;;;;;6.75;2.47;;;25.60;94.00;;;;;;4979362;28;20195;-42
2021/04/11 04:35:06;;;;;;;11.77;2.45;;;25.70;94.00;;;;;;4974864;28;20345;-52
2021/04/11 04:37:39;;;;;;;5.55;2.00;;;25.70;94.00;;;;;;4969216;28;20418;-49
2021/04/11 04:40:12;;;;;;;16.92;2.38;;;25.70;93.90;;;;;;4965738;28;20024;-52
2021/04/11 04:42:50;;;;;;;7.57;2.30;;;25.70;93.80;;;;;;4963058;28;20577;-51
2021/04/11 04:45:33;;;;;;;8.68;2.25;;;25.60;93.70;;;;;;4962679;28;20037;-48
2021/04/11 04:48:24;;;;;;;8.43;2.75;;;25.60;93.70;;;;;;4961917;28;20207;-49
2021/04/11 04:50:57;;;;;;;11.63;2.72;;;25.60;93.70;;;;;;4962922;28;20031;-46
2021/04/11 04:53:26;;;;;;;9.57;2.85;;;25.60;93.60;;;;;;4963116;28;20453;-51
2021/04/11 04:55:56;;;;;;;7.28;2.58;;;25.60;93.60;;;;;;4970813;28;20081;-45
2021/04/11 04:58:35;;;;;;;11.93;2.70;;;25.60;93.60;;;;;;4963127;28;20030;-44
2021/04/11 05:01:17;;;;;;;6.93;2.72;;;25.60;93.60;;;;;;4962664;28;20057;-42
2021/04/11 05:03:48;;;;;;;6.60;2.33;;;25.60;93.50;;;;;;4962411;29;20031;-50
2021/04/11 05:06:16;;;;;;;11.20;2.45;;;25.60;93.40;;;;;;4977012;28;20039;-46
2021/04/11 05:08:49;;;;;;;7.80;2.22;;;25.60;93.40;;;;;;4983781;28;20034;-43
2021/04/11 05:11:38;;;;;;;13.95;2.45;;;25.60;93.40;;;;;;4984410;28;20018;-52
2021/04/11 05:14:10;;;;;;;13.15;2.13;;;25.50;93.30;;;;;;4980254;28;20074;-43
2021/04/11 05:16:47;;;;;;;9.93;2.10;;;25.50;93.10;;;;;;4984237;28;20054;-48
2021/04/11 05:19:22;;;;;;;8.80;2.08;;;25.50;93.10;;;;;;4983868;28;20058;-43
2021/04/11 05:21:56;;;;;;;9.02;2.08;;;25.50;93.10;;;;;;4983323;28;20033;-44
2021/04/11 05:24:34;;;;;;;9.40;2.15;;;25.50;92.90;;;;;;4985062;28;20211;-43
2021/04/11 05:27:16;;;;;;;8.70;2.05;;;25.50;92.80;;;;;;4985062;28;20234;-43
2021/04/11 05:30:19;;;;;;;11.25;2.05;;;25.50;92.70;;;;;;4983839;28;20034;-46
2021/04/11 05:32:49;;;;;;;10.38;2.15;;;25.40;92.10;;;;;;4981642;28;20029;-47
2021/04/11 05:35:16;;;;;;;10.30;2.33;;;25.40;92.30;;;;;;4981483;28;20031;-44
2021/04/11 05:38:15;;;;;;;11.82;1.92;;;25.40;92.40;;;;;;4984486;28;20043;-42
2021/04/11 05:41:11;;;;;;;7.88;1.90;;;25.30;92.30;;;;;;4979991;28;20073;-42
2021/04/11 05:43:58;;;;;;;12.73;1.90;;;25.40;92.30;;;;;;4983702;28;20043;-42
2021/04/11 05:46:40;;;;;;;11.27;2.28;;;25.40;92.30;;;;;;4965274;28;20333;-42
2021/04/11 05:49:17;;;;;;;7.93;2.07;;;25.40;92.20;;;;;;4965733;28;20027;-42
2021/04/11 05:51:53;;;;;;;13.80;2.45;;;25.30;92.20;;;;;;4983541;28;20035;-42
2021/04/11 05:54:20;;;;;;;13.13;2.55;;;25.40;92.30;;;;;;4984459;28;20212;-47
2021/04/11 05:57:09;;;;;;;12.85;2.22;;;25.30;92.20;;;;;;4984710;28;20046;-46
2021/04/11 05:59:42;;;;;;;11.73;2.10;;;25.30;92.30;;;;;;5004515;28;20031;-43
2021/04/11 06:02:21;;;;;;;8.75;2.30;;;25.30;92.20;;;;;;4984564;28;20109;-45
2021/04/11 06:04:52;;;;;;;10.52;2.05;;;25.30;92.20;;;;;;4983536;28;20044;-50
2021/04/11 06:07:26;;;;;;;11.55;2.05;;;25.30;92.20;;;;;;4984561;28;20094;-52
2021/04/11 06:10:01;;;;;;;7.43;2.17;;;25.30;92.20;;;;;;4983440;28;20381;-51
2021/04/11 06:12:57;;;;;;;9.93;2.00;;;25.30;92.20;;;;;;4983005;28;20030;-44
2021/04/11 06:15:34;;;;;;;7.75;2.25;;;25.30;92.30;;;;;;4982153;28;20019;-47
2021/04/11 06:18:05;;;;;;;14.77;2.10;;;25.30;92.30;;;;;;4982357;28;20090;-43
2021/04/11 06:20:32;;;;;;;8.35;2.17;;;25.30;92.40;;;;;;4982473;28;20034;-45
2021/04/11 06:23:24;;;;;;;11.52;2.33;;;25.30;92.40;;;;;;4982630;28;20047;-53
2021/04/11 06:26:23;;;;;;;8.75;2.30;;;25.30;92.40;;;;;;4983547;28;20054;-43
2021/04/11 06:29:00;;;;;;;8.55;2.28;;;25.30;92.40;;;;;;4984216;28;20038;-45
2021/04/11 06:31:35;;;;;;;8.68;2.20;;;25.20;92.40;;;;;;4984010;28;20031;-43
2021/04/11 06:34:13;;;;;;;11.48;2.47;;;25.20;92.40;;;;;;4983888;28;20090;-48
2021/04/11 06:36:43;;;;;;;10.05;2.22;;;25.20;92.40;;;;;;4984004;28;20290;-49
2021/04/11 06:39:32;;;;;;;10.70;2.28;;;25.20;92.40;;;;;;4983818;28;20064;-47
2021/04/11 06:42:32;;;;;;;11.43;2.70;;;25.20;92.40;;;;;;4984119;28;20043;-46
2021/04/11 06:45:33;;;;;;;15.55;2.33;;;25.20;92.30;;;;;;4984103;28;20358;-46
2021/04/11 06:48:08;;;;;;;11.18;2.20;;;25.10;92.20;;;;;;4984269;28;20368;-46
2021/04/11 06:50:50;;;;;;;11.18;2.42;;;25.10;92.00;;;;;;4983718;28;20023;-46
2021/04/11 06:53:38;;;;;;;5.03;1.75;;;25.10;92.00;;;;;;4982589;28;20102;-50
2021/04/11 06:56:37;;;;;;;8.05;1.75;;;25.10;91.90;;;;;;4964258;29;20026;-46
2021/04/11 06:59:11;;;;;;;13.38;2.20;;;25.10;91.90;;;;;;4964262;28;20031;-47
2021/04/11 07:02:02;;;;;;;11.73;2.05;;;25.10;91.90;;;;;;4964481;28;20343;-43
2021/04/11 07:04:59;;;;;;;9.68;2.00;;;25.10;92.00;;;;;;4963980;28;20311;-47
2021/04/11 07:08:00;;;;;;;10.98;2.30;;;25.10;92.10;;;;;;4964378;28;20027;-45
2021/04/11 07:10:39;;;;;;;7.18;2.28;;;25.10;92.20;;;;;;4963237;28;20023;-45
2021/04/11 07:13:39;;;;;;;10.73;1.90;;;25.10;92.20;;;;;;4962536;28;20042;-51
2021/04/11 07:16:15;;;;;;;6.75;2.20;;;25.10;92.30;;;;;;4962222;28;20023;-42
2021/04/11 07:19:20;;;;;;;13.18;2.10;;;25.10;92.40;;;;;;4962247;28;20023;-47
2021/04/11 07:22:10;;;;;;;10.85;2.05;;;25.10;92.40;;;;;;4969992;28;20227;-49
2021/04/11 07:25:14;;;;;;;6.72;1.65;;;25.10;92.60;;;;;;4962050;28;20039;-59
2021/04/11 07:27:43;;;;;;;7.28;1.65;;;25.10;92.60;;;;;;4963142;28;20020;-51
2021/04/11 07:30:33;;;;;;;7.45;2.00;;;25.10;92.60;;;;;;4963886;28;20019;-55
2021/04/11 07:33:23;;;;;;;9.95;1.88;;;25.10;92.60;;;;;;4963982;28;20050;-53
2021/04/11 07:36:18;;;;;;;10.40;2.13;;;25.10;92.60;;;;;;4963848;28;20023;-51
2021/04/11 07:39:16;;;;;;;9.02;2.20;;;25.10;92.70;;;;;;4963655;29;20089;-51
2021/04/11 07:42:02;;;;;;;7.53;2.08;;;25.10;92.70;;;;;;4963694;28;20047;-51
2021/04/11 07:44:57;;;;;;;8.77;2.03;;;25.10;92.70;;;;;;4963420;28;20034;-49
2021/04/11 07:47:49;;;;;;;13.15;1.80;;;25.10;92.80;;;;;;4963804;28;20074;-49
2021/04/11 07:50:34;;;;;;;;;;;25.10;92.70;;;;;;4963946;28;20020;-52
2021/04/11 07:53:16;;;;;;;8.80;2.10;;;25.10;92.60;;;;;;4963285;28;19914;-50
2021/04/11 07:56:20;;;;;;;11.45;2.40;;;25.00;92.50;;;;;;4963513;28;20026;-51
2021/04/11 07:59:11;;;;;;;5.68;1.85;;;25.10;92.40;;;;;;4963359;28;20085;-46
2021/04/11 08:02:02;;;;;;;8.77;1.50;;;25.00;92.30;;;;;;4963386;28;20023;-48
2021/04/11 08:05:01;;;;;;;8.57;2.40;;;25.00;92.00;;;;;;4963205;28;20019;-44
2021/04/11 08:07:36;;;;;;;9.02;2.05;;;25.00;92.00;;;;;;4963524;28;20334;-53
2021/04/11 08:10:35;;;;;;;9.18;2.00;;;25.00;91.80;;;;;;4963547;28;20088;-55
2021/04/11 08:13:28;;;;;;;6.72;1.85;;;25.00;91.70;;;;;;4963427;28;20283;-50
2021/04/11 08:16:26;;;;;;;13.05;1.85;;;25.00;91.70;;;;;;4963251;28;20019;-53
2021/04/11 08:19:28;;;;;;;10.15;1.75;;;24.90;91.60;;;;;;4963138;28;20054;-50
2021/04/11 08:22:33;;;;;;;9.48;1.70;;;24.90;91.60;;;;;;4966904;28;20059;-56
2021/04/11 08:25:27;;;;;;;6.70;1.58;;;24.90;91.60;;;;;;4963142;28;20047;-54
2021/04/11 08:28:27;;;;;;;5.13;1.92;;;24.90;91.70;;;;;;4963421;28;20030;-52
2021/04/11 08:31:12;;;;;;;12.15;1.85;;;24.90;91.60;;;;;;4962810;28;20031;-58
2021/04/11 08:33:57;;;;;;;9.63;1.98;;;24.90;91.60;;;;;;4962930;28;20027;-44
2021/04/11 08:37:05;;;;;;;9.23;2.50;;;24.90;91.60;;;;;;4962907;28;20015;-50
2021/04/11 08:39:55;;;;;;;8.43;2.20;;;24.90;91.60;;;;;;4962833;28;20084;-50
2021/04/11 08:42:40;;;;;;;6.45;1.83;;;24.90;91.60;;;;;;4962837;28;20308;-55
2021/04/11 08:45:20;;;;;;;11.00;1.60;;;24.90;91.60;;;;;;4962762;28;20031;-56
2021/04/11 08:48:05;;;;;;;9.98;2.03;;;24.90;91.50;;;;;;4962951;28;20023;-49
2021/04/11 08:50:46;;;;;;;9.52;1.80;;;24.90;91.60;;;;;;4962697;28;20035;-48
2021/04/11 08:53:33;;;;;;;7.10;1.65;;;24.90;91.70;;;;;;4962799;28;20062;-50
2021/04/11 08:56:10;;;;;;;8.80;1.75;;;24.90;91.70;;;;;;4962512;28;20338;-52
2021/04/11 08:58:58;;;;;;;9.60;1.92;;;24.90;91.60;;;;;;4962825;29;20039;-53
2021/04/11 09:02:08;;;;;;;11.30;1.80;;;24.90;91.60;;;;;;4962405;28;20016;-46
2021/04/11 09:04:59;;;;;;;12.35;1.90;;;24.80;91.70;;;;;;4962373;28;20028;-51
2021/04/11 09:07:28;;;;;;;10.98;1.83;;;24.80;92.10;;;;;;4962567;28;20035;-55
2021/04/11 09:10:39;;;;;;;11.77;2.05;;;24.80;91.90;;;;;;4962219;28;20027;-47
2021/04/11 09:13:14;;;;;;;8.80;1.63;;;24.80;92.00;;;;;;4966482;28;20062;-50
2021/04/11 09:16:16;;;;;;;7.15;1.98;;;24.80;92.00;;;;;;4962312;28;20094;-52
2021/04/11 09:19:08;;;;;;;8.07;1.80;;;24.80;92.10;;;;;;4962426;28;20095;-49
2021/04/11 09:21:53;;;;;;;11.23;2.20;;;24.80;92.10;;;;;;4962287;28;20027;-55
2021/04/11 09:24:26;;;;;;;9.02;1.77;;;24.80;92.10;;;;;;4962244;28;20252;-42
2021/04/11 09:27:15;;;;;;;10.30;1.98;;;24.80;92.20;;;;;;4962448;28;20031;-50
2021/04/11 09:30:06;;;;;;;6.95;2.00;;;24.80;92.30;;;;;;4970107;28;20039;-51
2021/04/11 09:33:13;;;;;;;6.13;1.92;;;24.80;92.30;;;;;;4962029;28;20088;-51
2021/04/11 09:35:46;;;;;;;8.52;1.75;;;24.80;92.30;;;;;;4962164;28;20027;-52
2021/04/11 09:38:29;;;;;;;12.43;1.90;;;24.80;92.30;;;;;;4962381;28;20027;-52
2021/04/11 09:41:13;;;;;;;11.68;2.03;;;24.70;92.30;;;;;;4962121;28;20054;-52
2021/04/11 09:44:10;;;;;;;9.88;2.20;;;24.80;92.30;;;;;;4961951;28;20038;-52
2021/04/11 09:47:09;;;;;;;11.05;2.03;;;24.80;92.30;;;;;;4961789;28;20027;-44
2021/04/11 09:49:51;;;;;;;14.13;2.45;;;24.80;92.30;;;;;;4962640;28;20031;-51
2021/04/11 09:52:53;;;;;;;10.57;2.13;;;24.70;92.30;;;;;;4965294;28;20023;-51
2021/04/11 09:55:34;;;;;;;11.63;1.90;;;24.70;92.40;;;;;;4965295;28;20027;-49
2021/04/11 09:58:24;;;;;;;11.02;1.98;;;24.70;92.50;;;;;;4965607;28;20307;-51
2021/04/11 10:01:00;;;;;;;8.95;2.20;;;24.70;92.50;;;;;;4965459;28;20043;-53
2021/04/11 10:03:40;;;;;;;7.18;2.00;;;24.70;92.60;;;;;;4965446;28;20038;-50
2021/04/11 10:06:21;;;;;;;11.57;2.40;;;24.70;92.60;;;;;;4965429;28;20023;-56
2021/04/11 10:09:03;;;;;;;10.75;2.20;;;24.60;92.60;;;;;;4964979;28;20084;-50
2021/04/11 10:11:56;;;;;;;11.75;2.42;;;24.60;92.70;;;;;;4963918;28;20031;-46
2021/04/11 10:14:47;;;;;;;14.80;2.20;;;24.60;92.70;;;;;;4965087;28;20043;-50
2021/04/11 10:17:51;;;;;;;7.47;2.00;;;24.60;92.70;;;;;;4964850;28;20027;-49
2021/04/11 10:20:26;;;;;;;13.07;2.80;;;24.60;92.70;;;;;;4964790;28;20015;-47
2021/04/11 10:22:58;;;;;;;10.75;2.47;;;24.60;92.70;;;;;;4965159;28;20207;-52
2021/04/11 10:25:31;;;;;;;12.10;2.63;;;24.60;92.70;;;;;;4964714;28;20042;-46
2021/04/11 10:28:06;;;;;;;;;;;24.60;92.70;;;;;;4965719;28;20180;-50
2021/04/11 10:30:35;;;;;;;13.55;3.20;;;24.60;92.80;;;;;;4964763;28;19903;-50
2021/04/11 10:33:30;;;;;;;9.20;2.78;;;24.60;92.90;;;;;;4964867;28;20275;-50
2021/04/11 10:36:15;;;;;;;18.23;3.40;;;24.60;92.90;;;;;;4964633;28;20023;-45
2021/04/11 10:38:49;;;;;;;13.65;3.72;;;24.60;93.00;;;;;;4964588;28;20024;-49
2021/04/11 10:41:47;;;;;;;11.00;3.42;;;24.50;93.00;;;;;;4964375;28;20023;-50
2021/04/11 10:44:40;;;;;;;10.13;3.85;;;24.50;93.00;;;;;;4964161;28;20083;-47
2021/04/11 10:47:43;;;;;;;16.52;3.72;;;24.50;93.00;;;;;;4964716;28;20057;-48
2021/04/11 10:50:18;;;;;;;;;;;24.50;93.00;;;;;;4964919;28;20098;-47
2021/04/11 10:53:07;;;;;;;12.25;3.20;;;24.50;93.00;;;;;;4964457;28;19981;-44
2021/04/11 10:55:36;;;;;;;14.75;3.28;;;24.50;93.10;;;;;;4964303;28;20030;-48
2021/04/11 10:58:09;;;;;;;13.43;3.30;;;24.50;93.00;;;;;;4964730;28;20094;-43
2021/04/11 11:01:04;;;;;;;12.65;2.72;;;24.50;92.90;;;;;;4963554;28;20087;-51
2021/04/11 11:04:17;;;;;;;14.45;3.35;;;24.50;92.90;;;;;;4964029;28;20031;-48
2021/04/11 11:07:18;;;;;;;15.75;2.70;;;24.60;92.80;;;;;;4964162;28;20299;-53
2021/04/11 11:09:51;;;;;;;17.08;3.17;;;24.60;92.80;;;;;;4963016;28;20023;-49
2021/04/11 11:12:23;;;;;;;6.30;2.67;;;24.60;92.60;;;;;;4966864;28;20030;-46
2021/04/11 11:15:16;;;;;;;10.52;3.35;;;24.60;92.70;;;;;;4983609;28;20037;-45
2021/04/11 11:18:04;;;;;;;9.73;3.08;;;24.60;92.70;;;;;;4983819;28;20334;-50
2021/04/11 11:20:53;;;;;;;12.40;3.28;;;24.60;92.70;;;;;;4983313;28;20042;-52
2021/04/11 11:23:44;;;;;;;11.02;3.20;;;24.60;92.60;;;;;;4983621;28;20026;-52
2021/04/11 11:26:35;;;;;;;9.60;2.97;;;24.60;92.40;;;;;;4983064;28;20269;-50
2021/04/11 11:29:26;;;;;;;11.43;3.50;;;24.70;92.50;;;;;;4983247;28;20019;-50
2021/04/11 11:32:02;;;;;;;7.43;3.30;;;24.70;92.50;;;;;;4983068;28;20057;-50
2021/04/11 11:34:55;;;;;;;9.95;3.63;;;24.70;92.40;;;;;;4983057;28;20077;-49
2021/04/11 11:37:42;;;;;;;13.40;3.20;;;24.70;92.40;;;;;;4983261;28;20035;-50
2021/04/11 11:40:21;;;;;;;13.85;3.70;;;24.80;92.40;;;;;;4982893;28;20019;-54
2021/04/11 11:43:00;;;;;;;11.82;3.65;;;24.80;92.40;;;;;;4983445;28;20093;-51
2021/04/11 11:45:48;;;;;;;10.77;3.88;;;24.80;92.40;;;;;;4983106;28;20072;-51
2021/04/11 11:48:34;;;;;;;11.73;3.60;;;24.80;92.40;;;;;;4983294;28;20077;-52
2021/04/11 11:51:24;;;;;;;10.43;3.60;;;24.80;92.50;;;;;;4982829;28;20034;-51
2021/04/11 11:54:12;;;;;;;10.73;3.67;;;24.80;92.50;;;;;;4982576;28;20047;-54
2021/04/11 11:56:45;;;;;;;14.98;3.65;;;24.90;92.50;;;;;;4982842;28;20184;-55
2021/04/11 11:59:25;;;;;;;13.50;3.15;;;24.90;92.50;;;;;;4982613;28;20022;-50
2021/04/11 12:02:13;;;;;;;9.05;3.13;;;24.90;92.50;;;;;;4982770;28;20026;-42
2021/04/11 12:05:10;;;;;;;11.75;3.78;;;24.90;92.40;;;;;;4981589;28;20218;-49
2021/04/11 12:07:45;;;;;;;13.35;3.47;;;24.90;92.50;;;;;;4982772;28;20030;-50
2021/04/11 12:10:33;;;;;;;12.13;3.30;;;24.90;92.50;;;;;;4982843;28;20071;-50
2021/04/11 12:13:05;;;;;;;11.75;3.10;;;25.00;92.60;;;;;;4982172;28;20083;-43
2021/04/11 12:15:59;;;;;;;13.52;3.33;;;25.00;92.70;;;;;;4982504;28;20022;-43
2021/04/11 12:19:19;;;;;;;11.30;3.10;;;25.00;92.60;;;;;;4982049;28;20043;-42
2021/04/11 12:21:45;;;;;;;7.13;2.78;;;25.00;92.70;;;;;;4998649;28;20254;-42
2021/04/11 12:24:31;;;;;;;9.93;3.20;;;25.00;92.70;;;;;;4982479;28;20063;-46
2021/04/11 12:27:01;;;;;;;12.82;3.35;;;25.10;92.60;;;;;;4982513;28;20060;-46
2021/04/11 12:29:34;;;;;;;14.15;2.90;;;25.10;92.60;;;;;;4982293;28;20022;-51
2021/04/11 12:32:00;;;;;;;6.88;2.67;;;25.10;92.50;;;;;;4982180;28;20180;-49
2021/04/11 12:34:51;;;;;;;12.77;3.42;;;25.10;92.50;;;;;;4982278;28;20060;-46
2021/04/11 12:37:35;;;;;;;9.52;3.05;;;25.20;92.50;;;;;;4982323;28;20087;-45
2021/04/11 12:40:34;;;;;;;8.48;2.58;;;25.20;92.40;;;;;;4982135;28;20019;-42
2021/04/11 12:43:20;;;;;;;9.50;2.65;;;25.20;92.50;;;;;;4982482;28;20084;-51
2021/04/11 12:45:49;;;;;;;11.32;3.20;;;25.30;92.40;;;;;;4982112;28;20234;-50
2021/04/11 12:48:32;;;;;;;8.23;2.45;;;25.30;92.30;;;;;;4982033;28;20031;-49
2021/04/11 12:51:11;;;;;;;11.20;2.13;;;25.30;92.30;;;;;;4981937;28;20061;-52
2021/04/11 12:54:00;;;;;;;6.05;2.42;;;25.40;92.20;;;;;;4981864;28;20050;-48
2021/04/11 12:56:29;;;;;;;6.97;2.35;;;25.40;92.20;;;;;;4981709;28;20023;-56
2021/04/11 12:59:20;;;;;;;10.00;2.15;;;25.40;92.20;;;;;;4980944;28;20023;-45
2021/04/11 13:01:54;;;;;;;7.05;2.08;;;25.50;92.20;;;;;;4982142;28;20092;-52
2021/04/11 13:04:57;;;;;;;5.38;2.08;;;25.50;92.00;;;;;;4981792;28;20026;-50
2021/04/11 13:07:26;;;;;;;7.07;1.98;;;25.50;92.10;;;;;;4982094;28;20021;-51
2021/04/11 13:10:09;;;;;;;7.57;2.63;;;25.50;92.10;;;;;;4981636;28;20023;-46
2021/04/11 13:12:47;;;;;;;;;;;25.60;92.10;;;;;;4982380;28;20305;-46
2021/04/11 13:15:24;;;;;;;8.30;2.30;;;25.60;92.00;;;;;;4980662;28;19910;-51
2021/04/11 13:18:06;;;;;;;9.18;2.67;;;25.60;91.90;;;;;;4982181;28;20019;-51
2021/04/11 13:20:43;;;;;;;5.32;2.05;;;25.60;91.90;;;;;;4981015;28;20025;-50
2021/04/11 13:23:28;;;;;;;8.35;2.05;;;25.60;92.00;;;;;;4982091;28;20030;-48
2021/04/11 13:26:15;;;;;;;5.53;2.10;;;25.60;92.00;;;;;;4982990;28;20027;-51
2021/04/11 13:28:48;;;;;;;5.20;1.90;;;25.70;91.80;;;;;;4984813;28;20050;-45
2021/04/11 13:31:37;;;;;;;5.55;2.53;;;25.70;91.90;;;;;;4984836;28;20086;-45
2021/04/11 13:34:10;;;;;;;7.10;2.10;;;25.70;91.80;;;;;;4984744;28;20033;-44
2021/04/11 13:36:46;;;;;;;8.20;2.13;;;25.70;91.80;;;;;;4985005;28;20365;-49
2021/04/11 13:39:18;;;;;;;5.70;2.08;;;25.70;91.70;;;;;;4984693;28;20031;-58
2021/04/11 13:41:57;;;;;;;7.43;1.80;;;25.70;91.70;;;;;;4985065;28;20044;-48
2021/04/11 13:44:57;;;;;;;7.88;2.22;;;25.80;91.80;;;;;;4984874;28;20019;-54
2021/04/11 13:47:50;;;;;;;8.13;1.92;;;25.80;91.70;;;;;;4984405;28;20019;-49
2021/04/11 13:50:45;;;;;;;10.20;1.92;;;25.80;91.60;;;;;;4984639;28;20031;-52
2021/04/11 13:53:29;;;;;;;6.53;1.90;;;25.90;91.70;;;;;;4983741;28;20113;-51